sensor_id;sensor_type;location;lat;lon;timestamp;P1;durP1;ratioP1;P2;durP2;ratioP2
48241;SDS011;34041;51.812;4.622;2023-12-22T00:01:52;9.67;;;2.90;;
48241;SDS011;34041;51.812;4.622;2023-12-22T00:04:52;12.83;;;3.40;;
48241;SDS011;34041;51.812;4.622;2023-12-22T00:07:53;13.63;;;2.47;;
48241;SDS011;34041;51.812;4.622;2023-12-22T00:10:53;14.73;;;3.87;;
48241;SDS011;34041;51.812;4.622;2023-12-22T00:13:53;12.97;;;3.10;;
48241;SDS011;34041;51.812;4.622;2023-12-22T00:16:53;20.08;;;3.50;;
48241;SDS011;34041;51.812;4.622;2023-12-22T00:19:54;14.10;;;3.93;;
48241;SDS011;34041;51.812;4.622;2023-12-22T00:22:56;8.82;;;2.25;;
48241;SDS011;34041;51.812;4.622;2023-12-22T00:25:56;19.23;;;4.97;;
48241;SDS011;34041;51.812;4.622;2023-12-22T00:28:57;14.75;;;3.22;;
48241;SDS011;34041;51.812;4.622;2023-12-22T00:31:57;9.38;;;2.65;;
48241;SDS011;34041;51.812;4.622;2023-12-22T00:34:57;12.80;;;2.45;;
48241;SDS011;34041;51.812;4.622;2023-12-22T00:37:58;13.23;;;2.85;;
48241;SDS011;34041;51.812;4.622;2023-12-22T00:40:58;15.77;;;5.50;;
48241;SDS011;34041;51.812;4.622;2023-12-22T00:43:59;18.23;;;2.92;;
48241;SDS011;34041;51.812;4.622;2023-12-22T00:46:59;12.27;;;2.72;;
48241;SDS011;34041;51.812;4.622;2023-12-22T00:49:59;14.75;;;2.72;;
48241;SDS011;34041;51.812;4.622;2023-12-22T00:53:00;13.70;;;3.10;;
48241;SDS011;34041;51.812;4.622;2023-12-22T00:56:00;11.45;;;2.75;;
48241;SDS011;34041;51.812;4.622;2023-12-22T00:59:02;13.63;;;3.03;;
48241;SDS011;34041;51.812;4.622;2023-12-22T01:02:03;12.02;;;2.47;;
48241;SDS011;34041;51.812;4.622;2023-12-22T01:05:03;9.73;;;2.10;;
48241;SDS011;34041;51.812;4.622;2023-12-22T01:08:03;9.85;;;2.15;;
48241;SDS011;34041;51.812;4.622;2023-12-22T01:11:04;12.25;;;2.58;;
48241;SDS011;34041;51.812;4.622;2023-12-22T01:14:04;12.68;;;2.80;;
48241;SDS011;34041;51.812;4.622;2023-12-22T01:17:04;15.45;;;2.88;;
48241;SDS011;34041;51.812;4.622;2023-12-22T01:20:05;14.53;;;3.37;;
48241;SDS011;34041;51.812;4.622;2023-12-22T01:23:05;11.00;;;4.03;;
48241;SDS011;34041;51.812;4.622;2023-12-22T01:26:05;15.75;;;3.22;;
48241;SDS011;34041;51.812;4.622;2023-12-22T01:29:05;11.37;;;2.00;;
48241;SDS011;34041;51.812;4.622;2023-12-22T01:32:06;12.68;;;4.38;;
48241;SDS011;34041;51.812;4.622;2023-12-22T01:35:06;16.30;;;3.72;;
48241;SDS011;34041;51.812;4.622;2023-12-22T01:38:09;10.65;;;3.03;;
48241;SDS011;34041;51.812;4.622;2023-12-22T01:41:09;11.07;;;3.00;;
48241;SDS011;34041;51.812;4.622;2023-12-22T01:44:10;19.40;;;3.90;;
48241;SDS011;34041;51.812;4.622;2023-12-22T01:47:10;14.37;;;3.80;;
48241;SDS011;34041;51.812;4.622;2023-12-22T01:50:10;8.17;;;2.70;;
48241;SDS011;34041;51.812;4.622;2023-12-22T01:53:11;12.45;;;3.50;;
48241;SDS011;34041;51.812;4.622;2023-12-22T01:56:11;16.85;;;3.63;;
48241;SDS011;34041;51.812;4.622;2023-12-22T01:59:12;8.82;;;2.17;;
48241;SDS011;34041;51.812;4.622;2023-12-22T02:02:12;18.13;;;4.20;;
48241;SDS011;34041;51.812;4.622;2023-12-22T02:05:13;8.13;;;2.45;;
48241;SDS011;34041;51.812;4.622;2023-12-22T02:08:13;17.45;;;4.22;;
48241;SDS011;34041;51.812;4.622;2023-12-22T02:11:15;14.20;;;3.28;;
48241;SDS011;34041;51.812;4.622;2023-12-22T02:14:18;17.75;;;3.60;;
48241;SDS011;34041;51.812;4.622;2023-12-22T02:17:20;20.52;;;3.45;;
48241;SDS011;34041;51.812;4.622;2023-12-22T02:20:23;22.90;;;5.28;;
48241;SDS011;34041;51.812;4.622;2023-12-22T02:23:24;17.83;;;2.97;;
48241;SDS011;34041;51.812;4.622;2023-12-22T02:26:38;11.07;;;3.17;;
48241;SDS011;34041;51.812;4.622;2023-12-22T02:32:40;15.98;;;3.50;;
48241;SDS011;34041;51.812;4.622;2023-12-22T02:35:41;15.15;;;2.55;;
48241;SDS011;34041;51.812;4.622;2023-12-22T02:38:42;11.13;;;2.80;;
48241;SDS011;34041;51.812;4.622;2023-12-22T02:41:44;11.90;;;2.92;;
48241;SDS011;34041;51.812;4.622;2023-12-22T02:44:45;11.32;;;1.98;;
48241;SDS011;34041;51.812;4.622;2023-12-22T02:47:46;8.25;;;2.70;;
48241;SDS011;34041;51.812;4.622;2023-12-22T02:50:46;11.95;;;2.72;;
48241;SDS011;34041;51.812;4.622;2023-12-22T02:53:46;15.97;;;2.33;;
48241;SDS011;34041;51.812;4.622;2023-12-22T02:56:47;10.00;;;2.23;;
48241;SDS011;34041;51.812;4.622;2023-12-22T02:59:47;12.00;;;2.38;;
48241;SDS011;34041;51.812;4.622;2023-12-22T03:02:47;15.35;;;2.67;;
48241;SDS011;34041;51.812;4.622;2023-12-22T03:05:47;16.97;;;4.87;;
48241;SDS011;34041;51.812;4.622;2023-12-22T03:08:48;11.30;;;2.83;;
48241;SDS011;34041;51.812;4.622;2023-12-22T03:11:48;10.13;;;2.37;;
48241;SDS011;34041;51.812;4.622;2023-12-22T03:14:48;13.75;;;2.92;;
48241;SDS011;34041;51.812;4.622;2023-12-22T03:17:49;7.63;;;2.23;;
48241;SDS011;34041;51.812;4.622;2023-12-22T03:20:49;10.03;;;2.63;;
48241;SDS011;34041;51.812;4.622;2023-12-22T03:23:49;10.07;;;2.47;;
48241;SDS011;34041;51.812;4.622;2023-12-22T03:26:49;11.27;;;2.90;;
48241;SDS011;34041;51.812;4.622;2023-12-22T03:29:50;8.63;;;2.78;;
48241;SDS011;34041;51.812;4.622;2023-12-22T03:32:50;10.10;;;2.53;;
48241;SDS011;34041;51.812;4.622;2023-12-22T03:35:50;10.17;;;2.20;;
48241;SDS011;34041;51.812;4.622;2023-12-22T03:38:50;10.17;;;3.47;;
48241;SDS011;34041;51.812;4.622;2023-12-22T03:41:50;7.97;;;2.53;;
48241;SDS011;34041;51.812;4.622;2023-12-22T03:44:51;13.50;;;2.47;;
48241;SDS011;34041;51.812;4.622;2023-12-22T03:47:51;9.83;;;3.20;;
48241;SDS011;34041;51.812;4.622;2023-12-22T03:50:51;11.67;;;3.33;;
48241;SDS011;34041;51.812;4.622;2023-12-22T03:53:51;12.83;;;2.90;;
48241;SDS011;34041;51.812;4.622;2023-12-22T03:56:51;10.73;;;3.30;;
48241;SDS011;34041;51.812;4.622;2023-12-22T03:59:52;10.43;;;2.97;;
48241;SDS011;34041;51.812;4.622;2023-12-22T04:02:52;12.43;;;2.00;;
48241;SDS011;34041;51.812;4.622;2023-12-22T04:05:52;10.20;;;2.60;;
48241;SDS011;34041;51.812;4.622;2023-12-22T04:08:52;9.90;;;2.83;;
48241;SDS011;34041;51.812;4.622;2023-12-22T04:11:53;7.87;;;1.87;;
48241;SDS011;34041;51.812;4.622;2023-12-22T04:14:53;12.83;;;2.20;;
48241;SDS011;34041;51.812;4.622;2023-12-22T04:17:53;9.70;;;2.83;;
48241;SDS011;34041;51.812;4.622;2023-12-22T04:20:54;13.03;;;2.10;;
48241;SDS011;34041;51.812;4.622;2023-12-22T04:23:55;7.28;;;3.17;;
48241;SDS011;34041;51.812;4.622;2023-12-22T04:26:55;14.15;;;3.50;;
48241;SDS011;34041;51.812;4.622;2023-12-22T04:29:58;9.30;;;1.88;;
48241;SDS011;34041;51.812;4.622;2023-12-22T04:32:58;9.53;;;2.87;;
48241;SDS011;34041;51.812;4.622;2023-12-22T04:35:58;7.50;;;3.50;;
48241;SDS011;34041;51.812;4.622;2023-12-22T04:38:59;7.75;;;1.95;;
48241;SDS011;34041;51.812;4.622;2023-12-22T04:41:59;7.17;;;2.07;;
48241;SDS011;34041;51.812;4.622;2023-12-22T04:44:59;18.30;;;2.50;;
48241;SDS011;34041;51.812;4.622;2023-12-22T04:47:59;7.00;;;2.53;;
48241;SDS011;34041;51.812;4.622;2023-12-22T04:51:00;7.73;;;2.40;;
48241;SDS011;34041;51.812;4.622;2023-12-22T04:54:00;13.70;;;3.13;;
48241;SDS011;34041;51.812;4.622;2023-12-22T04:57:00;16.77;;;4.18;;
48241;SDS011;34041;51.812;4.622;2023-12-22T05:00:00;17.47;;;4.20;;
48241;SDS011;34041;51.812;4.622;2023-12-22T05:03:01;16.60;;;3.38;;
48241;SDS011;34041;51.812;4.622;2023-12-22T05:06:01;16.58;;;3.25;;
48241;SDS011;34041;51.812;4.622;2023-12-22T05:09:01;19.30;;;3.97;;
48241;SDS011;34041;51.812;4.622;2023-12-22T05:12:02;16.05;;;3.53;;
48241;SDS011;34041;51.812;4.622;2023-12-22T05:15:03;16.88;;;4.07;;
48241;SDS011;34041;51.812;4.622;2023-12-22T05:18:04;23.35;;;5.05;;
48241;SDS011;34041;51.812;4.622;2023-12-22T05:21:04;21.37;;;5.70;;
48241;SDS011;34041;51.812;4.622;2023-12-22T05:24:04;23.37;;;6.00;;
48241;SDS011;34041;51.812;4.622;2023-12-22T05:27:05;13.63;;;4.32;;
48241;SDS011;34041;51.812;4.622;2023-12-22T05:30:05;25.77;;;6.20;;
48241;SDS011;34041;51.812;4.622;2023-12-22T05:33:06;20.92;;;5.93;;
48241;SDS011;34041;51.812;4.622;2023-12-22T05:36:06;25.38;;;5.40;;
48241;SDS011;34041;51.812;4.622;2023-12-22T05:39:06;15.73;;;5.15;;
48241;SDS011;34041;51.812;4.622;2023-12-22T05:42:09;22.05;;;6.28;;
48241;SDS011;34041;51.812;4.622;2023-12-22T05:45:09;21.67;;;7.80;;
48241;SDS011;34041;51.812;4.622;2023-12-22T05:48:11;21.65;;;4.30;;
48241;SDS011;34041;51.812;4.622;2023-12-22T05:51:11;27.60;;;6.95;;
48241;SDS011;34041;51.812;4.622;2023-12-22T05:54:14;23.38;;;8.45;;
48241;SDS011;34041;51.812;4.622;2023-12-22T05:57:14;26.13;;;6.45;;
48241;SDS011;34041;51.812;4.622;2023-12-22T06:00:15;22.33;;;6.90;;
48241;SDS011;34041;51.812;4.622;2023-12-22T06:03:15;32.25;;;7.55;;
48241;SDS011;34041;51.812;4.622;2023-12-22T06:06:18;22.00;;;6.20;;
48241;SDS011;34041;51.812;4.622;2023-12-22T06:09:18;29.40;;;6.05;;
48241;SDS011;34041;51.812;4.622;2023-12-22T06:12:20;23.10;;;6.82;;
48241;SDS011;34041;51.812;4.622;2023-12-22T06:15:21;27.83;;;5.63;;
48241;SDS011;34041;51.812;4.622;2023-12-22T06:18:21;24.13;;;7.23;;
48241;SDS011;34041;51.812;4.622;2023-12-22T06:21:21;22.50;;;5.82;;
48241;SDS011;34041;51.812;4.622;2023-12-22T06:24:21;16.07;;;5.23;;
48241;SDS011;34041;51.812;4.622;2023-12-22T06:27:22;18.60;;;4.40;;
48241;SDS011;34041;51.812;4.622;2023-12-22T06:30:22;15.97;;;5.50;;
48241;SDS011;34041;51.812;4.622;2023-12-22T06:33:22;23.15;;;5.75;;
48241;SDS011;34041;51.812;4.622;2023-12-22T06:36:23;17.53;;;5.00;;
48241;SDS011;34041;51.812;4.622;2023-12-22T06:39:24;16.60;;;4.88;;
48241;SDS011;34041;51.812;4.622;2023-12-22T06:42:24;25.70;;;7.43;;
48241;SDS011;34041;51.812;4.622;2023-12-22T06:45:24;27.37;;;6.47;;
48241;SDS011;34041;51.812;4.622;2023-12-22T06:48:24;23.77;;;6.03;;
48241;SDS011;34041;51.812;4.622;2023-12-22T06:51:27;23.15;;;8.20;;
48241;SDS011;34041;51.812;4.622;2023-12-22T06:54:27;25.58;;;6.78;;
48241;SDS011;34041;51.812;4.622;2023-12-22T06:57:29;23.30;;;4.80;;
48241;SDS011;34041;51.812;4.622;2023-12-22T07:00:29;20.25;;;5.38;;
48241;SDS011;34041;51.812;4.622;2023-12-22T07:03:29;19.65;;;6.40;;
48241;SDS011;34041;51.812;4.622;2023-12-22T07:06:30;17.10;;;5.97;;
48241;SDS011;34041;51.812;4.622;2023-12-22T07:09:30;25.35;;;4.95;;
48241;SDS011;34041;51.812;4.622;2023-12-22T07:12:31;27.73;;;5.47;;
48241;SDS011;34041;51.812;4.622;2023-12-22T07:15:31;21.08;;;5.78;;
48241;SDS011;34041;51.812;4.622;2023-12-22T07:18:32;22.10;;;4.93;;
48241;SDS011;34041;51.812;4.622;2023-12-22T07:21:32;18.53;;;4.80;;
48241;SDS011;34041;51.812;4.622;2023-12-22T07:24:32;14.98;;;4.35;;
48241;SDS011;34041;51.812;4.622;2023-12-22T07:27:32;23.17;;;4.50;;
48241;SDS011;34041;51.812;4.622;2023-12-22T07:30:32;20.47;;;4.53;;
48241;SDS011;34041;51.812;4.622;2023-12-22T07:33:33;10.68;;;4.68;;
48241;SDS011;34041;51.812;4.622;2023-12-22T07:36:33;18.33;;;5.20;;
48241;SDS011;34041;51.812;4.622;2023-12-22T07:39:34;16.07;;;5.50;;
48241;SDS011;34041;51.812;4.622;2023-12-22T07:42:34;13.45;;;4.10;;
48241;SDS011;34041;51.812;4.622;2023-12-22T07:45:34;8.73;;;3.23;;
48241;SDS011;34041;51.812;4.622;2023-12-22T07:48:34;16.92;;;3.35;;
48241;SDS011;34041;51.812;4.622;2023-12-22T07:51:34;21.43;;;4.03;;
48241;SDS011;34041;51.812;4.622;2023-12-22T07:54:35;15.63;;;6.03;;
48241;SDS011;34041;51.812;4.622;2023-12-22T07:57:36;15.75;;;5.00;;
48241;SDS011;34041;51.812;4.622;2023-12-22T08:00:36;15.88;;;4.45;;
48241;SDS011;34041;51.812;4.622;2023-12-22T08:03:37;20.25;;;5.25;;
48241;SDS011;34041;51.812;4.622;2023-12-22T08:06:37;14.45;;;3.22;;
48241;SDS011;34041;51.812;4.622;2023-12-22T08:09:37;8.60;;;3.37;;
48241;SDS011;34041;51.812;4.622;2023-12-22T08:12:37;12.55;;;3.08;;
48241;SDS011;34041;51.812;4.622;2023-12-22T08:15:38;19.08;;;4.18;;
48241;SDS011;34041;51.812;4.622;2023-12-22T08:18:38;13.65;;;3.00;;
48241;SDS011;34041;51.812;4.622;2023-12-22T08:21:38;20.37;;;3.27;;
48241;SDS011;34041;51.812;4.622;2023-12-22T08:24:38;9.15;;;2.95;;
48241;SDS011;34041;51.812;4.622;2023-12-22T08:27:39;14.57;;;3.13;;
48241;SDS011;34041;51.812;4.622;2023-12-22T08:30:39;16.25;;;2.92;;
48241;SDS011;34041;51.812;4.622;2023-12-22T08:33:39;7.43;;;2.22;;
48241;SDS011;34041;51.812;4.622;2023-12-22T08:36:41;14.88;;;2.38;;
48241;SDS011;34041;51.812;4.622;2023-12-22T08:39:42;10.30;;;2.10;;
48241;SDS011;34041;51.812;4.622;2023-12-22T08:42:42;12.10;;;3.20;;
48241;SDS011;34041;51.812;4.622;2023-12-22T08:45:43;9.05;;;2.42;;
48241;SDS011;34041;51.812;4.622;2023-12-22T08:48:43;15.47;;;3.90;;
48241;SDS011;34041;51.812;4.622;2023-12-22T08:51:43;13.45;;;2.38;;
48241;SDS011;34041;51.812;4.622;2023-12-22T08:54:43;6.10;;;1.40;;
48241;SDS011;34041;51.812;4.622;2023-12-22T08:57:44;8.88;;;1.30;;
48241;SDS011;34041;51.812;4.622;2023-12-22T09:00:44;10.57;;;1.60;;
48241;SDS011;34041;51.812;4.622;2023-12-22T09:03:45;5.13;;;1.23;;
48241;SDS011;34041;51.812;4.622;2023-12-22T09:06:46;8.23;;;1.77;;
48241;SDS011;34041;51.812;4.622;2023-12-22T09:09:46;14.90;;;2.17;;
48241;SDS011;34041;51.812;4.622;2023-12-22T09:12:46;6.77;;;1.40;;
48241;SDS011;34041;51.812;4.622;2023-12-22T09:15:47;4.32;;;1.30;;
48241;SDS011;34041;51.812;4.622;2023-12-22T09:18:49;5.40;;;2.22;;
48241;SDS011;34041;51.812;4.622;2023-12-22T09:21:50;11.13;;;2.13;;
48241;SDS011;34041;51.812;4.622;2023-12-22T09:24:53;11.33;;;2.17;;
48241;SDS011;34041;51.812;4.622;2023-12-22T09:27:53;6.25;;;1.73;;
48241;SDS011;34041;51.812;4.622;2023-12-22T09:30:54;4.47;;;1.77;;
48241;SDS011;34041;51.812;4.622;2023-12-22T09:33:54;9.15;;;2.47;;
48241;SDS011;34041;51.812;4.622;2023-12-22T09:36:54;11.07;;;2.30;;
48241;SDS011;34041;51.812;4.622;2023-12-22T09:39:55;6.78;;;2.60;;
48241;SDS011;34041;51.812;4.622;2023-12-22T09:42:55;9.75;;;2.72;;
48241;SDS011;34041;51.812;4.622;2023-12-22T09:45:55;3.67;;;1.20;;
48241;SDS011;34041;51.812;4.622;2023-12-22T09:48:56;11.43;;;1.63;;
48241;SDS011;34041;51.812;4.622;2023-12-22T09:51:56;6.15;;;1.45;;
48241;SDS011;34041;51.812;4.622;2023-12-22T09:54:57;7.20;;;2.47;;
48241;SDS011;34041;51.812;4.622;2023-12-22T09:57:58;7.70;;;1.88;;
48241;SDS011;34041;51.812;4.622;2023-12-22T10:00:58;3.53;;;1.63;;
48241;SDS011;34041;51.812;4.622;2023-12-22T10:04:02;11.27;;;1.77;;
48241;SDS011;34041;51.812;4.622;2023-12-22T10:07:02;6.57;;;1.85;;
48241;SDS011;34041;51.812;4.622;2023-12-22T10:10:04;5.38;;;1.77;;
48241;SDS011;34041;51.812;4.622;2023-12-22T10:13:04;5.82;;;2.35;;
48241;SDS011;34041;51.812;4.622;2023-12-22T10:16:09;3.60;;;1.47;;
48241;SDS011;34041;51.812;4.622;2023-12-22T10:19:09;5.07;;;2.25;;
48241;SDS011;34041;51.812;4.622;2023-12-22T10:22:09;7.88;;;2.03;;
48241;SDS011;34041;51.812;4.622;2023-12-22T10:25:09;8.18;;;3.08;;
48241;SDS011;34041;51.812;4.622;2023-12-22T10:28:10;8.35;;;2.80;;
48241;SDS011;34041;51.812;4.622;2023-12-22T10:31:10;9.38;;;2.60;;
48241;SDS011;34041;51.812;4.622;2023-12-22T10:34:11;9.77;;;2.88;;
48241;SDS011;34041;51.812;4.622;2023-12-22T10:37:11;8.87;;;1.80;;
48241;SDS011;34041;51.812;4.622;2023-12-22T10:40:13;6.32;;;1.65;;
48241;SDS011;34041;51.812;4.622;2023-12-22T10:43:13;9.77;;;1.67;;
48241;SDS011;34041;51.812;4.622;2023-12-22T10:46:14;8.40;;;2.20;;
48241;SDS011;34041;51.812;4.622;2023-12-22T10:49:14;6.72;;;1.70;;
48241;SDS011;34041;51.812;4.622;2023-12-22T10:52:16;8.10;;;1.83;;
48241;SDS011;34041;51.812;4.622;2023-12-22T10:55:20;7.40;;;1.42;;
48241;SDS011;34041;51.812;4.622;2023-12-22T10:58:21;6.47;;;1.92;;
48241;SDS011;34041;51.812;4.622;2023-12-22T11:01:21;7.20;;;1.83;;
48241;SDS011;34041;51.812;4.622;2023-12-22T11:04:23;6.78;;;1.70;;
48241;SDS011;34041;51.812;4.622;2023-12-22T11:07:25;9.32;;;2.30;;
48241;SDS011;34041;51.812;4.622;2023-12-22T11:10:25;8.00;;;2.15;;
48241;SDS011;34041;51.812;4.622;2023-12-22T11:13:26;10.05;;;1.80;;
48241;SDS011;34041;51.812;4.622;2023-12-22T11:16:30;9.07;;;1.88;;
48241;SDS011;34041;51.812;4.622;2023-12-22T11:19:31;6.38;;;1.75;;
48241;SDS011;34041;51.812;4.622;2023-12-22T11:22:34;10.38;;;3.38;;
48241;SDS011;34041;51.812;4.622;2023-12-22T11:25:35;9.88;;;2.10;;
48241;SDS011;34041;51.812;4.622;2023-12-22T11:28:36;7.45;;;2.40;;
48241;SDS011;34041;51.812;4.622;2023-12-22T11:31:38;8.93;;;1.98;;
48241;SDS011;34041;51.812;4.622;2023-12-22T11:34:40;8.32;;;1.80;;
48241;SDS011;34041;51.812;4.622;2023-12-22T11:37:42;7.22;;;2.03;;
48241;SDS011;34041;51.812;4.622;2023-12-22T11:40:42;8.23;;;1.85;;
48241;SDS011;34041;51.812;4.622;2023-12-22T11:43:43;5.72;;;1.98;;
48241;SDS011;34041;51.812;4.622;2023-12-22T11:46:44;7.70;;;2.67;;
48241;SDS011;34041;51.812;4.622;2023-12-22T11:49:44;9.70;;;2.03;;
48241;SDS011;34041;51.812;4.622;2023-12-22T11:52:45;11.13;;;2.75;;
48241;SDS011;34041;51.812;4.622;2023-12-22T11:56:02;13.82;;;1.90;;
48241;SDS011;34041;51.812;4.622;2023-12-22T11:59:05;9.85;;;2.08;;
48241;SDS011;34041;51.812;4.622;2023-12-22T12:02:07;8.88;;;1.70;;
48241;SDS011;34041;51.812;4.622;2023-12-22T12:05:08;8.95;;;1.73;;
48241;SDS011;34041;51.812;4.622;2023-12-22T12:08:09;6.75;;;1.40;;
48241;SDS011;34041;51.812;4.622;2023-12-22T12:11:09;8.95;;;2.72;;
48241;SDS011;34041;51.812;4.622;2023-12-22T12:14:09;11.20;;;2.38;;
48241;SDS011;34041;51.812;4.622;2023-12-22T12:17:15;11.83;;;2.50;;
48241;SDS011;34041;51.812;4.622;2023-12-22T12:20:16;6.38;;;1.63;;
48241;SDS011;34041;51.812;4.622;2023-12-22T12:23:16;11.20;;;4.60;;
48241;SDS011;34041;51.812;4.622;2023-12-22T12:26:17;7.28;;;1.52;;
48241;SDS011;34041;51.812;4.622;2023-12-22T12:29:17;11.57;;;3.15;;
48241;SDS011;34041;51.812;4.622;2023-12-22T12:32:18;9.27;;;2.20;;
48241;SDS011;34041;51.812;4.622;2023-12-22T12:35:18;12.73;;;2.92;;
48241;SDS011;34041;51.812;4.622;2023-12-22T12:38:20;9.48;;;2.65;;
48241;SDS011;34041;51.812;4.622;2023-12-22T12:41:23;15.50;;;2.20;;
48241;SDS011;34041;51.812;4.622;2023-12-22T12:44:27;9.30;;;2.95;;
48241;SDS011;34041;51.812;4.622;2023-12-22T12:47:29;10.93;;;3.88;;
48241;SDS011;34041;51.812;4.622;2023-12-22T12:50:29;7.73;;;3.33;;
48241;SDS011;34041;51.812;4.622;2023-12-22T12:53:31;10.85;;;2.00;;
48241;SDS011;34041;51.812;4.622;2023-12-22T12:56:42;7.35;;;1.67;;
48241;SDS011;34041;51.812;4.622;2023-12-22T12:59:46;15.18;;;4.63;;
48241;SDS011;34041;51.812;4.622;2023-12-22T13:02:47;7.43;;;2.58;;
48241;SDS011;34041;51.812;4.622;2023-12-22T13:05:47;7.03;;;2.23;;
48241;SDS011;34041;51.812;4.622;2023-12-22T13:08:48;6.72;;;1.73;;
48241;SDS011;34041;51.812;4.622;2023-12-22T13:11:49;9.38;;;3.17;;
48241;SDS011;34041;51.812;4.622;2023-12-22T13:14:49;8.17;;;2.67;;
48241;SDS011;34041;51.812;4.622;2023-12-22T13:17:49;11.57;;;2.28;;
48241;SDS011;34041;51.812;4.622;2023-12-22T13:20:50;6.72;;;2.05;;
48241;SDS011;34041;51.812;4.622;2023-12-22T13:27:10;9.40;;;2.13;;
48241;SDS011;34041;51.812;4.622;2023-12-22T13:30:10;11.30;;;2.30;;
48241;SDS011;34041;51.812;4.622;2023-12-22T13:33:10;11.48;;;2.60;;
48241;SDS011;34041;51.812;4.622;2023-12-22T13:36:10;13.27;;;2.40;;
48241;SDS011;34041;51.812;4.622;2023-12-22T13:39:12;16.17;;;3.05;;
48241;SDS011;34041;51.812;4.622;2023-12-22T13:42:15;8.88;;;2.90;;
48241;SDS011;34041;51.812;4.622;2023-12-22T13:45:16;7.80;;;2.30;;
48241;SDS011;34041;51.812;4.622;2023-12-22T13:48:16;16.55;;;2.95;;
48241;SDS011;34041;51.812;4.622;2023-12-22T13:51:17;8.02;;;1.83;;
48241;SDS011;34041;51.812;4.622;2023-12-22T13:54:18;7.97;;;1.92;;
48241;SDS011;34041;51.812;4.622;2023-12-22T13:57:21;9.38;;;2.47;;
48241;SDS011;34041;51.812;4.622;2023-12-22T14:00:24;13.77;;;4.03;;
48241;SDS011;34041;51.812;4.622;2023-12-22T14:03:26;9.17;;;2.13;;
48241;SDS011;34041;51.812;4.622;2023-12-22T14:06:27;10.82;;;3.55;;
48241;SDS011;34041;51.812;4.622;2023-12-22T14:09:27;8.55;;;2.72;;
48241;SDS011;34041;51.812;4.622;2023-12-22T14:12:31;9.52;;;2.55;;
48241;SDS011;34041;51.812;4.622;2023-12-22T14:15:32;7.85;;;2.45;;
48241;SDS011;34041;51.812;4.622;2023-12-22T14:18:32;9.20;;;2.42;;
48241;SDS011;34041;51.812;4.622;2023-12-22T14:21:32;7.43;;;2.15;;
48241;SDS011;34041;51.812;4.622;2023-12-22T14:24:34;6.07;;;2.17;;
48241;SDS011;34041;51.812;4.622;2023-12-22T14:27:34;9.10;;;2.17;;
48241;SDS011;34041;51.812;4.622;2023-12-22T14:30:34;12.68;;;2.50;;
48241;SDS011;34041;51.812;4.622;2023-12-22T14:33:34;8.50;;;1.97;;
48241;SDS011;34041;51.812;4.622;2023-12-22T14:36:34;11.37;;;2.77;;
48241;SDS011;34041;51.812;4.622;2023-12-22T14:39:35;10.37;;;2.53;;
48241;SDS011;34041;51.812;4.622;2023-12-22T14:42:35;11.65;;;2.80;;
48241;SDS011;34041;51.812;4.622;2023-12-22T14:45:35;12.07;;;2.22;;
48241;SDS011;34041;51.812;4.622;2023-12-22T14:48:35;7.30;;;3.10;;
48241;SDS011;34041;51.812;4.622;2023-12-22T14:51:36;13.57;;;3.30;;
48241;SDS011;34041;51.812;4.622;2023-12-22T14:54:37;9.55;;;2.22;;
48241;SDS011;34041;51.812;4.622;2023-12-22T14:57:37;12.77;;;2.63;;
48241;SDS011;34041;51.812;4.622;2023-12-22T15:00:37;13.13;;;3.10;;
48241;SDS011;34041;51.812;4.622;2023-12-22T15:03:37;8.30;;;2.30;;
48241;SDS011;34041;51.812;4.622;2023-12-22T15:06:38;11.23;;;2.37;;
48241;SDS011;34041;51.812;4.622;2023-12-22T15:09:39;10.23;;;2.72;;
48241;SDS011;34041;51.812;4.622;2023-12-22T15:12:39;8.38;;;2.05;;
48241;SDS011;34041;51.812;4.622;2023-12-22T15:15:42;12.07;;;3.35;;
48241;SDS011;34041;51.812;4.622;2023-12-22T15:18:43;8.27;;;2.88;;
48241;SDS011;34041;51.812;4.622;2023-12-22T15:21:43;10.00;;;2.40;;
48241;SDS011;34041;51.812;4.622;2023-12-22T15:24:43;7.30;;;2.60;;
48241;SDS011;34041;51.812;4.622;2023-12-22T15:27:43;9.68;;;1.98;;
48241;SDS011;34041;51.812;4.622;2023-12-22T15:30:44;11.37;;;2.00;;
48241;SDS011;34041;51.812;4.622;2023-12-22T15:33:44;13.10;;;2.70;;
48241;SDS011;34041;51.812;4.622;2023-12-22T15:36:44;8.13;;;2.20;;
48241;SDS011;34041;51.812;4.622;2023-12-22T15:39:46;8.32;;;2.42;;
48241;SDS011;34041;51.812;4.622;2023-12-22T15:42:47;9.73;;;3.80;;
48241;SDS011;34041;51.812;4.622;2023-12-22T15:45:47;14.87;;;2.53;;
48241;SDS011;34041;51.812;4.622;2023-12-22T15:48:47;11.98;;;2.80;;
48241;SDS011;34041;51.812;4.622;2023-12-22T15:51:47;10.73;;;2.67;;
48241;SDS011;34041;51.812;4.622;2023-12-22T15:54:47;15.13;;;2.90;;
48241;SDS011;34041;51.812;4.622;2023-12-22T15:57:48;8.53;;;2.30;;
48241;SDS011;34041;51.812;4.622;2023-12-22T16:00:48;5.18;;;1.90;;
48241;SDS011;34041;51.812;4.622;2023-12-22T16:03:48;6.17;;;2.07;;
48241;SDS011;34041;51.812;4.622;2023-12-22T16:06:50;4.28;;;1.95;;
48241;SDS011;34041;51.812;4.622;2023-12-22T16:09:51;11.15;;;2.45;;
48241;SDS011;34041;51.812;4.622;2023-12-22T16:12:51;14.27;;;2.57;;
48241;SDS011;34041;51.812;4.622;2023-12-22T16:15:51;12.43;;;2.30;;
48241;SDS011;34041;51.812;4.622;2023-12-22T16:18:52;12.63;;;3.60;;
48241;SDS011;34041;51.812;4.622;2023-12-22T16:21:52;11.57;;;3.65;;
48241;SDS011;34041;51.812;4.622;2023-12-22T16:24:52;10.07;;;2.22;;
48241;SDS011;34041;51.812;4.622;2023-12-22T16:27:52;9.43;;;2.53;;
48241;SDS011;34041;51.812;4.622;2023-12-22T16:30:53;5.97;;;2.37;;
48241;SDS011;34041;51.812;4.622;2023-12-22T16:33:53;10.70;;;3.22;;
48241;SDS011;34041;51.812;4.622;2023-12-22T16:36:54;15.10;;;2.03;;
48241;SDS011;34041;51.812;4.622;2023-12-22T16:39:54;10.63;;;2.67;;
48241;SDS011;34041;51.812;4.622;2023-12-22T16:42:55;9.80;;;3.13;;
48241;SDS011;34041;51.812;4.622;2023-12-22T16:45:55;13.30;;;2.67;;
48241;SDS011;34041;51.812;4.622;2023-12-22T16:48:55;11.00;;;2.42;;
48241;SDS011;34041;51.812;4.622;2023-12-22T16:51:55;8.63;;;2.37;;
48241;SDS011;34041;51.812;4.622;2023-12-22T16:54:56;10.25;;;2.33;;
48241;SDS011;34041;51.812;4.622;2023-12-22T16:57:59;10.20;;;2.75;;
48241;SDS011;34041;51.812;4.622;2023-12-22T17:00:59;8.32;;;1.98;;
48241;SDS011;34041;51.812;4.622;2023-12-22T17:03:59;9.77;;;2.08;;
48241;SDS011;34041;51.812;4.622;2023-12-22T17:07:00;12.50;;;3.20;;
48241;SDS011;34041;51.812;4.622;2023-12-22T17:10:02;10.60;;;2.50;;
48241;SDS011;34041;51.812;4.622;2023-12-22T17:13:03;11.50;;;3.03;;
48241;SDS011;34041;51.812;4.622;2023-12-22T17:16:04;8.45;;;2.35;;
48241;SDS011;34041;51.812;4.622;2023-12-22T17:19:04;9.02;;;3.15;;
48241;SDS011;34041;51.812;4.622;2023-12-22T17:22:04;7.40;;;3.13;;
48241;SDS011;34041;51.812;4.622;2023-12-22T17:25:05;12.47;;;2.70;;
48241;SDS011;34041;51.812;4.622;2023-12-22T17:28:05;9.93;;;2.25;;
48241;SDS011;34041;51.812;4.622;2023-12-22T17:31:05;10.65;;;2.75;;
48241;SDS011;34041;51.812;4.622;2023-12-22T17:34:06;9.13;;;2.70;;
48241;SDS011;34041;51.812;4.622;2023-12-22T17:37:07;11.63;;;2.55;;
48241;SDS011;34041;51.812;4.622;2023-12-22T17:40:08;15.23;;;3.72;;
48241;SDS011;34041;51.812;4.622;2023-12-22T17:43:08;12.85;;;2.65;;
48241;SDS011;34041;51.812;4.622;2023-12-22T17:46:08;8.60;;;2.40;;
48241;SDS011;34041;51.812;4.622;2023-12-22T17:49:08;9.00;;;2.40;;
48241;SDS011;34041;51.812;4.622;2023-12-22T17:52:09;10.50;;;2.67;;
48241;SDS011;34041;51.812;4.622;2023-12-22T17:55:10;9.70;;;2.67;;
48241;SDS011;34041;51.812;4.622;2023-12-22T17:58:10;13.20;;;2.15;;
48241;SDS011;34041;51.812;4.622;2023-12-22T18:01:10;8.37;;;3.03;;
48241;SDS011;34041;51.812;4.622;2023-12-22T18:04:10;11.10;;;2.50;;
48241;SDS011;34041;51.812;4.622;2023-12-22T18:07:11;11.43;;;2.30;;